createdAt,value
2017-01-01T00:00:18.166Z,16.42
2017-01-01T00:00:58.816Z,16.37
2017-01-01T00:01:39.441Z,16.42
2017-01-01T00:02:20.068Z,16.35
2017-01-01T00:03:00.705Z,16.33
2017-01-01T00:03:41.348Z,16.35
2017-01-01T00:04:21.992Z,16.38
2017-01-01T00:05:02.615Z,16.35
2017-01-01T00:05:43.256Z,16.35
2017-01-01T00:06:23.881Z,16.33
2017-01-01T00:07:04.513Z,16.35
2017-01-01T00:07:45.159Z,16.4
2017-01-01T00:08:25.804Z,16.38
2017-01-01T00:09:06.430Z,16.42
2017-01-01T00:09:47.060Z,16.41
2017-01-01T00:10:27.726Z,16.38
2017-01-01T00:11:08.374Z,16.4
2017-01-01T00:11:49.019Z,16.37
2017-01-01T00:12:29.655Z,16.4
2017-01-01T00:13:10.335Z,16.35
2017-01-01T00:13:50.958Z,16.38
2017-01-01T00:14:31.618Z,16.37
2017-01-01T00:15:12.243Z,16.34
2017-01-01T00:15:52.868Z,16.34
2017-01-01T00:16:33.515Z,16.31
2017-01-01T00:17:14.151Z,16.33
2017-01-01T00:17:54.794Z,16.33
2017-01-01T00:18:35.448Z,16.31
2017-01-01T00:19:16.079Z,16.33
2017-01-01T00:19:56.707Z,16.35
2017-01-01T00:20:37.458Z,16.34
2017-01-01T00:21:18.099Z,16.31
2017-01-01T00:21:58.742Z,16.33
2017-01-01T00:22:39.365Z,16.34
2017-01-01T00:23:20.002Z,16.33
2017-01-01T00:24:00.633Z,16.35
2017-01-01T00:24:41.279Z,16.35
2017-01-01T00:25:21.911Z,16.35
2017-01-01T00:26:02.543Z,16.33
2017-01-01T00:26:43.244Z,16.31
2017-01-01T00:27:23.876Z,16.35
2017-01-01T00:28:04.515Z,16.38
2017-01-01T00:28:45.256Z,16.42
2017-01-01T00:29:25.890Z,16.4
2017-01-01T00:30:06.519Z,16.37
2017-01-01T00:30:47.172Z,16.35
2017-01-01T00:31:27.804Z,16.37
2017-01-01T00:32:08.422Z,16.25
2017-01-01T00:32:49.091Z,16.3
2017-01-01T00:33:29.716Z,16.27
2017-01-01T00:34:10.344Z,16.37
2017-01-01T00:34:51.036Z,16.33
2017-01-01T00:35:31.663Z,16.31
2017-01-01T00:36:12.284Z,16.33
2017-01-01T00:38:05.547Z,16.37
2017-01-01T00:38:46.177Z,16.38
2017-01-01T00:39:26.792Z,16.33
2017-01-01T00:40:07.425Z,16.37
2017-01-01T00:40:48.066Z,16.35
2017-01-01T00:41:28.714Z,16.34
2017-01-01T00:42:09.342Z,16.35
2017-01-01T00:42:49.971Z,16.37
2017-01-01T00:43:30.661Z,16.31
2017-01-01T00:44:11.279Z,16.34
2017-01-01T00:44:51.905Z,16.34
2017-01-01T00:45:32.568Z,16.38
2017-01-01T00:46:13.188Z,16.37
2017-01-01T00:46:53.822Z,16.31
2017-01-01T00:47:34.508Z,16.31
2017-01-01T00:48:15.132Z,16.34
2017-01-01T00:48:55.750Z,16.3
2017-01-01T00:49:36.379Z,16.31
2017-01-01T00:50:17.021Z,16.38
2017-01-01T00:50:57.661Z,16.35
2017-01-01T00:51:38.295Z,16.35
2017-01-01T00:52:18.934Z,16.4
2017-01-01T00:52:59.577Z,16.34
2017-01-01T00:53:40.201Z,16.3
2017-01-01T00:54:20.864Z,16.37
2017-01-01T00:55:01.503Z,16.34
2017-01-01T00:55:42.136Z,16.37
2017-01-01T00:56:22.792Z,16.34
2017-01-01T00:57:03.408Z,16.31
2017-01-01T00:57:44.043Z,16.33
2017-01-01T00:58:24.757Z,16.37
2017-01-01T00:59:05.355Z,16.35
2017-01-01T00:59:45.992Z,16.31
2017-01-01T01:00:26.708Z,16.41
2017-01-01T01:01:07.353Z,16.33
2017-01-01T01:01:47.987Z,16.31
2017-01-01T01:02:28.653Z,16.34
2017-01-01T01:03:09.287Z,16.22
2017-01-01T01:03:49.936Z,16.37
2017-01-01T01:04:30.607Z,16.38
2017-01-01T01:05:11.244Z,16.42
2017-01-01T01:05:51.927Z,16.33
2017-01-01T01:06:32.553Z,16.34
2017-01-01T01:07:13.178Z,16.31
2017-01-01T01:07:53.815Z,16.38
2017-01-01T01:08:34.455Z,16.34
2017-01-01T01:09:15.089Z,16.4
2017-01-01T01:09:55.733Z,16.31
2017-01-01T01:10:36.411Z,16.34
2017-01-01T01:11:17.067Z,16.34
2017-01-01T01:11:57.717Z,16.34
2017-01-01T01:12:38.371Z,16.33
2017-01-01T01:13:19.020Z,16.38
2017-01-01T01:13:59.648Z,16.34
2017-01-01T01:14:40.335Z,16.34
2017-01-01T01:15:20.976Z,16.3
2017-01-01T01:16:01.608Z,16.42
2017-01-01T01:16:43.022Z,16.3
2017-01-01T01:17:23.660Z,16.31
2017-01-01T01:18:04.290Z,16.37
2017-01-01T01:18:44.919Z,16.27
2017-01-01T01:19:25.553Z,16.3
2017-01-01T01:20:06.177Z,16.26
2017-01-01T01:20:46.818Z,16.35
2017-01-01T01:21:27.481Z,16.35
2017-01-01T01:22:08.135Z,16.34
2017-01-01T01:22:48.763Z,16.35
2017-01-01T01:23:29.394Z,16.31
2017-01-01T01:24:10.016Z,16.27
2017-01-01T01:24:50.640Z,16.4
2017-01-01T01:25:31.268Z,16.3
2017-01-01T01:26:11.921Z,16.3
2017-01-01T01:26:52.610Z,16.42
2017-01-01T01:27:33.164Z,16.35
2017-01-01T01:28:13.792Z,16.27
2017-01-01T01:28:54.426Z,16.25
2017-01-01T01:29:35.084Z,16.2
2017-01-01T01:30:15.712Z,16.31
2017-01-01T01:30:56.339Z,16.23
2017-01-01T01:31:36.976Z,16.26
2017-01-01T01:32:17.607Z,16.3
2017-01-01T01:32:58.253Z,16.22
2017-01-01T01:33:38.884Z,16.33
2017-01-01T01:34:19.520Z,16.18
2017-01-01T01:35:00.137Z,16.33
2017-01-01T01:35:40.785Z,16.22
2017-01-01T01:36:21.403Z,16.31
2017-01-01T01:37:02.074Z,16.25
2017-01-01T01:37:42.683Z,16.34
2017-01-01T01:38:23.389Z,16.25
2017-01-01T01:39:04.014Z,16.3
2017-01-01T01:39:44.640Z,16.2
2017-01-01T01:40:25.275Z,16.3
2017-01-01T01:41:05.920Z,16.2
2017-01-01T01:41:46.559Z,16.16
2017-01-01T01:42:27.287Z,16.23
2017-01-01T01:43:07.933Z,16.25
2017-01-01T01:43:48.554Z,16.27
2017-01-01T01:44:29.193Z,16.3
2017-01-01T01:45:09.830Z,16.23
2017-01-01T01:45:50.473Z,16.23
2017-01-01T01:46:31.094Z,16.23
2017-01-01T01:47:11.731Z,16.27
2017-01-01T01:47:52.360Z,16.15
2017-01-01T01:48:33.068Z,16.22
2017-01-01T01:49:13.699Z,16.23
2017-01-01T01:49:54.332Z,16.26
2017-01-01T01:50:34.963Z,16.2
2017-01-01T01:51:15.595Z,16.26
2017-01-01T01:51:56.219Z,16.23
2017-01-01T01:52:36.848Z,16.25
2017-01-01T01:53:17.481Z,16.23
2017-01-01T01:53:58.103Z,16.23
2017-01-01T01:54:38.742Z,16.23
2017-01-01T01:55:19.378Z,16.25
2017-01-01T01:56:00.115Z,16.23
2017-01-01T01:56:40.749Z,16.26
2017-01-01T01:57:21.371Z,16.23
2017-01-01T01:58:01.998Z,16.26
2017-01-01T01:58:42.638Z,16.22
2017-01-01T01:59:23.264Z,16.23
2017-01-01T02:00:03.895Z,16.2
2017-01-01T02:00:44.520Z,16.2
2017-01-01T02:01:25.163Z,16.22
2017-01-01T02:02:05.810Z,16.22
2017-01-01T02:02:46.448Z,16.26
2017-01-01T02:03:27.075Z,16.22
2017-01-01T02:04:07.730Z,16.3
2017-01-01T02:04:48.355Z,16.23
2017-01-01T02:05:28.989Z,16.22
2017-01-01T02:06:09.634Z,16.18
2017-01-01T02:06:50.258Z,16.25
2017-01-01T02:07:30.960Z,16.23
2017-01-01T02:08:11.532Z,16.23
2017-01-01T02:08:52.171Z,16.18
2017-01-01T02:09:32.890Z,16.16
2017-01-01T02:10:13.472Z,16.2
2017-01-01T02:10:54.097Z,16.2
2017-01-01T02:11:34.733Z,16.18
2017-01-01T02:12:15.353Z,16.2
2017-01-01T02:12:55.988Z,16.23
2017-01-01T02:13:36.621Z,16.2
2017-01-01T02:14:17.296Z,16.18
2017-01-01T02:14:57.923Z,16.2
2017-01-01T02:15:38.560Z,16.2
2017-01-01T02:16:19.191Z,16.22
2017-01-01T02:16:59.830Z,16.16
2017-01-01T02:17:40.465Z,16.2
2017-01-01T02:18:21.110Z,16.25
2017-01-01T02:19:01.749Z,16.23
2017-01-01T02:19:42.421Z,16.2
2017-01-01T02:20:23.044Z,16.2
2017-01-01T02:21:03.675Z,16.26
2017-01-01T02:21:44.324Z,16.23
2017-01-01T02:22:24.962Z,16.23
2017-01-01T02:23:05.583Z,16.22
2017-01-01T02:23:46.212Z,16.18
2017-01-01T02:24:26.840Z,16.14
2017-01-01T02:25:07.573Z,16.25
2017-01-01T02:25:48.219Z,16.15
2017-01-01T02:26:28.836Z,16.18
2017-01-01T02:27:09.470Z,16.22
2017-01-01T02:27:50.114Z,16.22
2017-01-01T02:28:30.747Z,16.15
2017-01-01T02:29:11.469Z,16.27
2017-01-01T02:29:52.102Z,16.18
2017-01-01T02:30:32.747Z,16.3
2017-01-01T02:31:13.472Z,16.15
2017-01-01T02:31:54.107Z,16.2
2017-01-01T02:32:34.739Z,16.18
2017-01-01T02:33:15.362Z,16.2
2017-01-01T02:33:55.991Z,16.16
2017-01-01T02:34:36.620Z,16.14
2017-01-01T02:35:17.261Z,16.12
2017-01-01T02:35:57.892Z,16.2
2017-01-01T02:36:38.518Z,16.2
2017-01-01T02:37:19.194Z,16.15
2017-01-01T02:37:59.844Z,16.15
2017-01-01T02:38:40.472Z,16.31
2017-01-01T02:39:21.107Z,16.22
2017-01-01T02:40:01.729Z,16.14
2017-01-01T02:40:42.344Z,16.2
2017-01-01T02:41:22.999Z,16.15
2017-01-01T02:42:03.658Z,16.22
2017-01-01T02:42:44.304Z,16.12
2017-01-01T02:43:24.927Z,16.15
2017-01-01T02:44:05.599Z,16.12
2017-01-01T02:44:46.235Z,16.18
2017-01-01T02:45:26.853Z,16.2
2017-01-01T02:46:07.493Z,16.15
2017-01-01T02:46:48.115Z,16.15
2017-01-01T02:47:28.740Z,16.2
2017-01-01T02:48:09.368Z,16.2
2017-01-01T02:48:50.001Z,16.12
2017-01-01T02:49:30.633Z,16.23
2017-01-01T02:50:11.284Z,16.18
2017-01-01T02:50:51.911Z,16.23
2017-01-01T02:51:32.539Z,16.23
2017-01-01T02:52:13.273Z,16.15
2017-01-01T02:52:53.927Z,16.12
2017-01-01T02:53:34.558Z,16.11
2017-01-01T02:54:15.200Z,16.16
2017-01-01T02:54:55.833Z,16.14
2017-01-01T02:55:36.464Z,16.07
2017-01-01T02:56:17.154Z,16.14
2017-01-01T02:56:57.785Z,16.23
2017-01-01T02:57:38.404Z,16.14
2017-01-01T02:58:19.032Z,16.22
2017-01-01T02:58:59.686Z,16.15
2017-01-01T02:59:40.305Z,16.2
2017-01-01T03:00:20.925Z,16.14
2017-01-01T03:01:01.557Z,16.18
2017-01-01T03:01:42.188Z,16.15
2017-01-01T03:02:22.825Z,16.06
2017-01-01T03:03:03.459Z,16.12
2017-01-01T03:03:44.084Z,16.16
2017-01-01T03:04:24.714Z,16.15
2017-01-01T03:05:05.342Z,16.12
2017-01-01T03:05:45.993Z,16.11
2017-01-01T03:06:26.626Z,16.11
2017-01-01T03:07:07.259Z,16.12
2017-01-01T03:07:47.907Z,16.11
2017-01-01T03:08:28.541Z,16.12
2017-01-01T03:09:09.166Z,16.16
2017-01-01T03:09:49.902Z,16.16
2017-01-01T03:10:30.578Z,16.14
2017-01-01T03:11:11.204Z,16.16
2017-01-01T03:11:51.851Z,16.16
2017-01-01T03:12:32.491Z,16.15
2017-01-01T03:13:13.123Z,16.15
2017-01-01T03:13:53.749Z,16.07
2017-01-01T03:14:34.400Z,16.11
2017-01-01T03:15:15.038Z,16.09
2017-01-01T03:15:55.673Z,16.07
2017-01-01T03:16:36.296Z,16.09
2017-01-01T03:17:16.926Z,16.09
2017-01-01T03:17:57.563Z,16.12
2017-01-01T03:18:38.187Z,16.18
2017-01-01T03:19:18.818Z,16.04
2017-01-01T03:19:59.448Z,16.18
2017-01-01T03:20:40.072Z,16.14
2017-01-01T03:21:20.708Z,16.07
2017-01-01T03:22:01.340Z,16.15
2017-01-01T03:22:41.990Z,16.11
2017-01-01T03:23:22.610Z,16.09
2017-01-01T03:24:03.246Z,16.06
2017-01-01T03:24:43.889Z,16.12
2017-01-01T03:25:24.529Z,16.11
2017-01-01T03:26:05.180Z,16.09
2017-01-01T03:26:45.820Z,16.07
2017-01-01T03:27:26.457Z,16.07
2017-01-01T03:28:07.090Z,16.2
2017-01-01T03:28:47.720Z,16.12
2017-01-01T03:29:28.338Z,16.07
2017-01-01T03:30:08.973Z,16.12
2017-01-01T03:30:49.620Z,16.12
2017-01-01T03:31:30.252Z,16.15
2017-01-01T03:32:10.935Z,16.11
2017-01-01T03:32:51.572Z,16.09
2017-01-01T03:33:32.212Z,16.03
2017-01-01T03:34:12.858Z,16.07
2017-01-01T03:34:53.488Z,16.12
2017-01-01T03:35:34.119Z,16.03
2017-01-01T03:36:14.756Z,16.09
2017-01-01T03:36:55.382Z,16.11
2017-01-01T03:37:36.010Z,16.06
2017-01-01T03:38:16.689Z,16.09
2017-01-01T03:38:57.323Z,16.2
2017-01-01T03:39:37.951Z,16.04
2017-01-01T03:40:18.697Z,16.06
2017-01-01T03:40:59.323Z,16.16
2017-01-01T03:41:39.947Z,16.07
2017-01-01T03:42:20.606Z,16.14
2017-01-01T03:43:01.240Z,16.14
2017-01-01T03:43:41.871Z,16.11
2017-01-01T03:44:22.585Z,16.04
2017-01-01T03:45:03.219Z,16.12
2017-01-01T03:45:43.846Z,16.11
2017-01-01T03:46:24.501Z,16.06
2017-01-01T03:47:05.135Z,16.04
2017-01-01T03:47:45.781Z,16.06
2017-01-01T03:48:26.445Z,16.04
2017-01-01T03:49:07.084Z,16.11
2017-01-01T03:49:47.716Z,16.12
2017-01-01T03:50:28.410Z,16.16
2017-01-01T03:51:09.048Z,16.14
2017-01-01T03:51:49.693Z,16.07
2017-01-01T03:52:30.328Z,16.11
2017-01-01T03:53:10.989Z,16.07
2017-01-01T03:53:51.751Z,16.12
2017-01-01T03:54:32.314Z,16.11
2017-01-01T03:55:12.960Z,16.04
2017-01-01T03:55:53.621Z,16.06
2017-01-01T03:56:34.265Z,16.03
2017-01-01T03:57:14.893Z,16.06
2017-01-01T03:57:55.543Z,16.12
2017-01-01T03:58:36.198Z,16.14
2017-01-01T03:59:16.839Z,16.09
2017-01-01T03:59:57.502Z,16.06
2017-01-01T04:00:38.137Z,16.09
2017-01-01T04:01:18.761Z,16.09
2017-01-01T04:01:59.431Z,16.11
2017-01-01T04:02:40.060Z,16.04
2017-01-01T04:03:20.691Z,16.07
2017-01-01T04:04:01.327Z,16.04
2017-01-01T04:04:41.952Z,16.11
2017-01-01T04:05:25.356Z,16.12
2017-01-01T04:06:06.015Z,16.14
2017-01-01T04:06:46.653Z,16.11
2017-01-01T04:07:27.331Z,16.12
2017-01-01T04:08:07.960Z,16.01
2017-01-01T04:08:48.615Z,16.16
2017-01-01T04:09:29.292Z,16.03
2017-01-01T04:10:09.957Z,16.06
2017-01-01T04:10:50.610Z,16
2017-01-01T04:11:31.242Z,16
2017-01-01T04:12:11.879Z,16.03
2017-01-01T04:12:52.509Z,16.07
2017-01-01T04:13:33.220Z,16.07
2017-01-01T04:14:13.846Z,16.01
2017-01-01T04:14:54.489Z,16.04
2017-01-01T04:15:35.162Z,16.01
2017-01-01T04:16:15.802Z,16.03
2017-01-01T04:16:56.431Z,16.09
2017-01-01T04:17:37.104Z,16.16
2017-01-01T04:18:17.759Z,16.01
2017-01-01T04:18:58.412Z,16.03
2017-01-01T04:19:39.139Z,16.09
2017-01-01T04:20:19.764Z,16.14
2017-01-01T04:21:00.395Z,16.11
2017-01-01T04:21:41.072Z,16.16
2017-01-01T04:22:21.718Z,16.16
2017-01-01T04:23:02.353Z,16.03
2017-01-01T04:23:42.987Z,16.01
2017-01-01T04:24:23.626Z,16.03
2017-01-01T04:25:04.255Z,16.01
2017-01-01T04:25:44.887Z,16.18
2017-01-01T04:26:25.534Z,16.14
2017-01-01T04:27:06.160Z,16.03
2017-01-01T04:27:46.799Z,16.01
2017-01-01T04:28:27.449Z,16.07
2017-01-01T04:29:08.073Z,16.11
2017-01-01T04:29:48.694Z,16.01
2017-01-01T04:30:29.325Z,16.04
2017-01-01T04:31:09.960Z,16.03
2017-01-01T04:31:50.588Z,16
2017-01-01T04:32:31.244Z,16.01
2017-01-01T04:33:11.867Z,16.09
2017-01-01T04:33:52.483Z,16
2017-01-01T04:34:33.180Z,16.04
2017-01-01T04:35:13.824Z,15.97
2017-01-01T04:35:54.463Z,16.14
2017-01-01T04:36:35.082Z,16.14
2017-01-01T04:37:15.711Z,16.11
2017-01-01T04:37:56.341Z,15.99
2017-01-01T04:38:37.045Z,16
2017-01-01T04:39:17.702Z,16.01
2017-01-01T04:39:58.332Z,16.01
2017-01-01T04:40:38.964Z,16
2017-01-01T04:41:19.597Z,16
2017-01-01T04:42:00.223Z,16.14
2017-01-01T04:42:40.859Z,16.04
2017-01-01T04:43:21.495Z,16.15
2017-01-01T04:44:02.134Z,16.07
2017-01-01T04:44:42.783Z,16.11
2017-01-01T04:45:23.413Z,16.04
2017-01-01T04:46:04.038Z,16.14
2017-01-01T04:46:44.671Z,16.11
2017-01-01T04:47:25.299Z,16.07
2017-01-01T04:48:05.959Z,15.97
2017-01-01T04:48:46.731Z,16.04
2017-01-01T04:49:27.399Z,16.16
2017-01-01T04:50:08.015Z,16.18
2017-01-01T04:50:48.662Z,16.09
2017-01-01T04:51:29.289Z,15.99
2017-01-01T04:52:09.918Z,16.01
2017-01-01T04:52:50.555Z,15.99
2017-01-01T04:53:31.206Z,16.01
2017-01-01T04:54:11.846Z,16.03
2017-01-01T04:54:52.504Z,15.99
2017-01-01T04:55:33.132Z,16.07
2017-01-01T04:56:13.761Z,16.06
2017-01-01T04:56:54.445Z,16.07
2017-01-01T04:57:35.100Z,16.11
2017-01-01T04:58:15.740Z,16.07
2017-01-01T04:58:56.419Z,16.12
2017-01-01T04:59:37.049Z,16.14
2017-01-01T05:00:17.687Z,16.14
2017-01-01T05:00:58.342Z,16.07
2017-01-01T05:01:38.983Z,16.06
2017-01-01T05:02:19.622Z,16.07
2017-01-01T05:03:00.271Z,16.11
2017-01-01T05:03:40.908Z,16.12
2017-01-01T05:04:21.554Z,16.07
2017-01-01T05:05:02.211Z,16.07
2017-01-01T05:05:42.835Z,16.15
2017-01-01T05:06:23.463Z,16.06
2017-01-01T05:07:04.085Z,16.01
2017-01-01T05:07:44.713Z,16.09
2017-01-01T05:08:25.374Z,16.03
2017-01-01T05:09:06.005Z,16.11
2017-01-01T05:09:46.641Z,16.06
2017-01-01T05:10:27.282Z,16.12
2017-01-01T05:11:07.930Z,16.12
2017-01-01T05:11:48.549Z,16.14
2017-01-01T05:12:29.200Z,16.07
2017-01-01T05:13:09.846Z,16.14
2017-01-01T05:13:50.522Z,16.07
2017-01-01T05:14:31.182Z,16.11
2017-01-01T05:15:11.803Z,16.01
2017-01-01T05:15:53.435Z,16.11
2017-01-01T05:16:34.112Z,16.09
2017-01-01T05:17:14.773Z,16.09
2017-01-01T05:17:55.429Z,16
2017-01-01T05:18:36.053Z,16.07
2017-01-01T05:19:16.691Z,16.12
2017-01-01T05:19:57.360Z,15.96
2017-01-01T05:20:37.986Z,16.09
2017-01-01T05:21:18.626Z,16.07
2017-01-01T05:21:59.250Z,15.99
2017-01-01T05:22:39.884Z,16.01
2017-01-01T05:23:20.528Z,16
2017-01-01T05:24:01.158Z,16.04
2017-01-01T05:24:41.795Z,16.06
2017-01-01T05:25:22.420Z,16.03
2017-01-01T05:26:03.046Z,16.06
2017-01-01T05:26:43.665Z,16.04
2017-01-01T05:27:24.306Z,16.03
2017-01-01T05:28:04.930Z,16.04
2017-01-01T05:28:45.570Z,16.01
2017-01-01T05:29:26.201Z,16.09
2017-01-01T05:30:06.843Z,16.09
2017-01-01T05:30:47.470Z,16.06
2017-01-01T05:31:28.088Z,16.11
2017-01-01T05:32:08.735Z,16.07
2017-01-01T05:32:49.373Z,16.01
2017-01-01T05:33:30.015Z,16.01
2017-01-01T05:34:10.647Z,15.99
2017-01-01T05:34:51.286Z,16.07
2017-01-01T05:35:31.919Z,16.01
2017-01-01T05:36:12.573Z,16.01
2017-01-01T05:36:53.208Z,16.03
2017-01-01T05:37:33.836Z,16
2017-01-01T05:38:14.462Z,16
2017-01-01T05:38:55.091Z,16.07
2017-01-01T05:39:35.750Z,16.03
2017-01-01T05:40:16.385Z,16
2017-01-01T05:40:57.047Z,16.04
2017-01-01T05:41:37.688Z,15.96
2017-01-01T05:42:18.317Z,16
2017-01-01T05:42:58.961Z,16.04
2017-01-01T05:43:39.585Z,15.99
2017-01-01T05:44:20.220Z,16.03
2017-01-01T05:45:00.850Z,16
2017-01-01T05:45:41.485Z,16.01
2017-01-01T05:46:22.125Z,16.03
2017-01-01T05:47:02.749Z,16.03
2017-01-01T05:47:43.389Z,15.99
2017-01-01T05:48:24.012Z,16.01
2017-01-01T05:49:04.761Z,15.99
2017-01-01T05:49:45.401Z,16.03
2017-01-01T05:50:26.038Z,16
2017-01-01T05:51:06.677Z,16.04
2017-01-01T05:51:47.300Z,16.04
2017-01-01T05:52:27.964Z,16.03
2017-01-01T05:53:08.607Z,16.07
2017-01-01T05:53:49.247Z,16.01
2017-01-01T05:54:29.936Z,15.99
2017-01-01T05:55:10.564Z,16.01
2017-01-01T05:55:51.192Z,16.06
2017-01-01T05:56:31.832Z,15.99
2017-01-01T05:57:12.474Z,16.04
2017-01-01T05:57:53.104Z,16.03
2017-01-01T05:58:33.766Z,15.97
2017-01-01T05:59:14.402Z,16.06
2017-01-01T05:59:55.038Z,16.04
2017-01-01T06:00:35.703Z,16.01
2017-01-01T06:01:16.341Z,16.01
2017-01-01T06:01:56.981Z,16.01
2017-01-01T06:02:37.620Z,16.06
2017-01-01T06:03:18.245Z,15.97
2017-01-01T06:03:58.878Z,16.03
2017-01-01T06:04:39.533Z,16
2017-01-01T06:05:20.168Z,15.99
2017-01-01T06:06:00.796Z,15.99
2017-01-01T06:06:41.429Z,15.99
2017-01-01T06:07:22.058Z,16.06
2017-01-01T06:08:02.677Z,16
2017-01-01T06:08:43.303Z,16.09
2017-01-01T06:09:23.920Z,15.99
2017-01-01T06:10:04.583Z,16.01
2017-01-01T06:10:45.228Z,16.01
2017-01-01T06:11:25.853Z,16
2017-01-01T06:12:06.532Z,16.06
2017-01-01T06:12:47.180Z,16.01
2017-01-01T06:13:27.799Z,16
2017-01-01T06:14:08.508Z,16.04
2017-01-01T06:14:49.170Z,15.97
2017-01-01T06:15:29.800Z,16.01
2017-01-01T06:16:10.459Z,16.06
2017-01-01T06:16:51.140Z,16.01
2017-01-01T06:17:31.767Z,16.06
2017-01-01T06:18:12.392Z,16.01
2017-01-01T06:18:53.018Z,16.04
2017-01-01T06:19:33.679Z,16.03
2017-01-01T06:20:14.327Z,15.99
2017-01-01T06:20:54.995Z,16.07
2017-01-01T06:21:35.632Z,15.99
2017-01-01T06:22:16.255Z,15.99
2017-01-01T06:22:56.871Z,16.06
2017-01-01T06:23:37.517Z,16
2017-01-01T06:24:18.143Z,16.01
2017-01-01T06:24:58.779Z,16.06
2017-01-01T06:25:39.413Z,16.01
2017-01-01T06:26:20.054Z,16.03
2017-01-01T06:27:00.713Z,16
2017-01-01T06:27:41.343Z,16.04
2017-01-01T06:28:21.986Z,16
2017-01-01T06:29:02.616Z,16.01
2017-01-01T06:29:43.263Z,15.99
2017-01-01T06:30:23.884Z,16
2017-01-01T06:31:04.516Z,16
2017-01-01T06:31:45.147Z,16.01
2017-01-01T06:32:25.776Z,15.99
2017-01-01T06:33:06.415Z,16.03
2017-01-01T06:33:47.062Z,16
2017-01-01T06:34:27.696Z,15.93
2017-01-01T06:35:08.334Z,16.01
2017-01-01T06:35:48.966Z,15.99
2017-01-01T06:36:29.590Z,16.01
2017-01-01T06:37:10.217Z,16.03
2017-01-01T06:37:50.845Z,16.03
2017-01-01T06:38:31.475Z,16.01
2017-01-01T06:39:12.148Z,16.01
2017-01-01T06:39:52.792Z,16
2017-01-01T06:40:33.425Z,16
2017-01-01T06:41:14.061Z,16.01
2017-01-01T06:41:54.688Z,15.99
2017-01-01T06:42:35.321Z,16.03
2017-01-01T06:43:15.954Z,15.99
2017-01-01T06:43:56.591Z,16.04
2017-01-01T06:44:37.253Z,16.03
2017-01-01T06:45:17.903Z,16.01
2017-01-01T06:45:58.535Z,15.99
2017-01-01T06:46:39.146Z,15.99
2017-01-01T06:47:19.784Z,16
2017-01-01T06:48:00.417Z,16.01
2017-01-01T06:48:41.044Z,16.07
2017-01-01T06:49:21.666Z,16.01
2017-01-01T06:50:02.298Z,16
2017-01-01T06:50:42.956Z,16.01
2017-01-01T06:51:23.608Z,16.06
2017-01-01T06:52:04.257Z,16.01
2017-01-01T06:52:44.909Z,16
2017-01-01T06:53:25.546Z,16.01
2017-01-01T06:54:06.189Z,16.01
2017-01-01T06:54:46.928Z,16
2017-01-01T06:55:27.554Z,16
2017-01-01T06:56:08.179Z,16.03
2017-01-01T06:56:48.826Z,16.03
2017-01-01T06:57:29.473Z,16
2017-01-01T06:58:10.082Z,16
2017-01-01T06:58:50.770Z,16.01
2017-01-01T06:59:31.399Z,16.01
2017-01-01T07:00:12.053Z,16
2017-01-01T07:00:52.681Z,15.94
2017-01-01T07:01:33.319Z,15.94
2017-01-01T07:02:13.969Z,15.94
2017-01-01T07:02:54.619Z,15.97
2017-01-01T07:03:35.259Z,15.99
2017-01-01T07:04:15.905Z,15.93
2017-01-01T07:04:56.546Z,15.94
2017-01-01T07:05:37.166Z,15.99
2017-01-01T07:06:17.804Z,15.94
2017-01-01T07:06:58.440Z,15.97
2017-01-01T07:07:39.073Z,16
2017-01-01T07:08:19.704Z,16.03
2017-01-01T07:09:00.324Z,15.99
2017-01-01T07:09:40.967Z,15.99
2017-01-01T07:10:21.600Z,15.97
2017-01-01T07:11:02.242Z,15.97
2017-01-01T07:11:42.889Z,15.96
2017-01-01T07:12:23.521Z,16
2017-01-01T07:13:04.156Z,15.97
2017-01-01T07:13:44.808Z,15.93
2017-01-01T07:14:25.433Z,15.97
2017-01-01T07:15:06.064Z,15.97
2017-01-01T07:15:46.686Z,15.94
2017-01-01T07:16:27.305Z,15.96
2017-01-01T07:17:07.960Z,16.01
2017-01-01T07:17:48.592Z,15.97
2017-01-01T07:18:29.220Z,15.97
2017-01-01T07:19:09.856Z,15.99
2017-01-01T07:19:50.506Z,16.01
2017-01-01T07:20:31.134Z,16.06
2017-01-01T07:21:11.763Z,15.93
2017-01-01T07:21:52.417Z,15.96
2017-01-01T07:22:33.049Z,15.99
2017-01-01T07:23:13.696Z,16
2017-01-01T07:23:54.345Z,15.94
2017-01-01T07:24:34.988Z,15.99
2017-01-01T07:25:15.624Z,15.93
2017-01-01T07:25:56.259Z,16.01
2017-01-01T07:26:36.885Z,16.01
2017-01-01T07:27:17.516Z,15.97
2017-01-01T07:27:58.146Z,15.96
2017-01-01T07:28:38.784Z,15.97
2017-01-01T07:29:19.424Z,15.93
2017-01-01T07:30:00.046Z,15.96
2017-01-01T07:30:40.670Z,15.97
2017-01-01T07:31:21.367Z,15.97
2017-01-01T07:32:02.012Z,15.96
2017-01-01T07:32:42.635Z,15.96
2017-01-01T07:33:23.273Z,16
2017-01-01T07:34:03.894Z,15.94
2017-01-01T07:34:44.537Z,15.99
2017-01-01T07:35:25.220Z,15.96
2017-01-01T07:36:05.843Z,16.01
2017-01-01T07:36:46.480Z,15.97
2017-01-01T07:37:27.131Z,16.03
2017-01-01T07:38:07.773Z,15.99
2017-01-01T07:38:48.414Z,15.97
2017-01-01T07:39:29.048Z,15.99
2017-01-01T07:40:09.694Z,15.94
2017-01-01T07:40:50.308Z,16.03
2017-01-01T07:41:31.007Z,16
2017-01-01T07:42:11.643Z,15.99
2017-01-01T07:42:52.272Z,16.01
2017-01-01T07:43:32.966Z,16.01
2017-01-01T07:44:13.591Z,15.94
2017-01-01T07:44:54.224Z,15.97
2017-01-01T07:45:34.848Z,16.01
2017-01-01T07:46:15.474Z,16.03
2017-01-01T07:46:56.108Z,15.97
2017-01-01T07:47:36.764Z,15.97
2017-01-01T07:48:17.390Z,16.03
2017-01-01T07:48:58.010Z,16.01
2017-01-01T07:49:38.641Z,15.92
2017-01-01T07:50:19.321Z,15.96
2017-01-01T07:50:59.950Z,15.92
2017-01-01T07:51:40.574Z,15.99
2017-01-01T07:52:21.246Z,15.96
2017-01-01T07:53:01.875Z,15.97
2017-01-01T07:53:42.510Z,15.93
2017-01-01T07:54:23.173Z,15.97
2017-01-01T07:55:03.802Z,15.97
2017-01-01T07:55:44.431Z,15.94
2017-01-01T07:56:25.106Z,15.97
2017-01-01T07:57:05.733Z,15.99
2017-01-01T07:57:46.378Z,16
2017-01-01T07:58:27.016Z,16
2017-01-01T07:59:07.635Z,15.92
2017-01-01T07:59:48.282Z,15.94
2017-01-01T08:00:28.915Z,15.96
2017-01-01T08:01:09.545Z,15.97
2017-01-01T08:01:50.175Z,15.97
2017-01-01T08:02:30.798Z,15.96
2017-01-01T08:03:11.437Z,15.93
2017-01-01T08:03:52.063Z,15.93
2017-01-01T08:04:32.708Z,15.93
2017-01-01T08:05:13.341Z,15.94
2017-01-01T08:05:53.970Z,15.93
2017-01-01T08:06:34.619Z,15.94
2017-01-01T08:07:15.259Z,15.92
2017-01-01T08:07:55.886Z,15.92
2017-01-01T08:08:36.520Z,15.94
2017-01-01T08:09:17.152Z,15.92
2017-01-01T08:09:57.781Z,15.89
2017-01-01T08:10:38.422Z,15.94
2017-01-01T08:11:19.048Z,15.99
2017-01-01T08:11:59.687Z,15.99
2017-01-01T08:12:40.312Z,15.97
2017-01-01T08:13:20.946Z,16
2017-01-01T08:14:01.582Z,15.94
2017-01-01T08:14:42.208Z,16.03
2017-01-01T08:15:22.834Z,15.96
2017-01-01T08:16:03.530Z,16
2017-01-01T08:16:44.196Z,15.96
2017-01-01T08:17:24.840Z,15.92
2017-01-01T08:18:05.483Z,15.97
2017-01-01T08:18:46.143Z,15.94
2017-01-01T08:19:26.767Z,15.94
2017-01-01T08:20:07.415Z,15.96
2017-01-01T08:20:48.032Z,15.96
2017-01-01T08:21:28.665Z,15.93
2017-01-01T08:22:09.339Z,15.89
2017-01-01T08:22:49.975Z,15.93
2017-01-01T08:23:30.617Z,15.97
2017-01-01T08:24:11.259Z,15.99
2017-01-01T08:24:51.911Z,15.92
2017-01-01T08:25:32.540Z,15.88
2017-01-01T08:26:13.176Z,15.99
2017-01-01T08:26:53.801Z,15.94
2017-01-01T08:27:34.444Z,15.96
2017-01-01T08:28:15.114Z,15.97
2017-01-01T08:28:55.740Z,15.97
2017-01-01T08:29:36.371Z,15.94
2017-01-01T08:30:17.003Z,15.94
2017-01-01T08:30:57.663Z,15.97
2017-01-01T08:31:38.297Z,15.96
2017-01-01T08:32:18.924Z,15.81
2017-01-01T08:32:59.595Z,15.85
2017-01-01T08:33:40.249Z,15.93
2017-01-01T08:34:20.895Z,15.85
2017-01-01T08:35:01.539Z,15.92
2017-01-01T08:35:42.163Z,15.94
2017-01-01T08:36:22.778Z,15.96
2017-01-01T08:37:03.487Z,15.89
2017-01-01T08:37:44.129Z,15.92
2017-01-01T08:38:24.761Z,15.97
2017-01-01T08:39:05.396Z,15.94
2017-01-01T08:39:46.032Z,15.89
2017-01-01T08:40:26.674Z,15.94
2017-01-01T08:41:07.299Z,15.97
2017-01-01T08:41:47.965Z,15.93
2017-01-01T08:42:28.597Z,15.97
2017-01-01T08:43:09.231Z,15.89
2017-01-01T08:43:49.857Z,15.94
2017-01-01T08:44:30.491Z,15.96
2017-01-01T08:45:11.152Z,15.93
2017-01-01T08:45:51.796Z,15.93
2017-01-01T08:46:32.424Z,15.82
2017-01-01T08:47:13.192Z,15.97
2017-01-01T08:47:53.828Z,15.92
2017-01-01T08:48:34.446Z,15.99